Time;durP1;ratioP1;P1;durP2;ratioP2;P2;SDS_P1;SDS_P2;PMS_P1;PMS_P2;Temp;Humidity;BMP_temperature;BMP_pressure;BME280_temperature;BME280_humidity;BME280_pressure;Samples;Min_cycle;Max_cycle;Signal;HPM_P1;HPM_P2
2022/08/14 00:00:18;;;;;;;6.80;4.63;;;22.60;98.60;;;;;;5078420;28;20614;-75
2022/08/14 00:02:44;;;;;;;8.75;4.45;;;22.60;98.80;;;;;;5096967;27;20178;-75
2022/08/14 00:05:13;;;;;;;13.60;4.90;;;22.60;98.70;;;;;;5078982;28;20052;-75
2022/08/14 00:07:38;;;;;;;8.63;4.72;;;22.60;98.90;;;;;;5060359;28;20040;-76
2022/08/14 00:10:07;;;;;;;9.15;4.75;;;22.60;99.00;;;;;;5075754;28;20051;-75
2022/08/14 00:12:36;;;;;;;7.13;4.60;;;22.50;99.00;;;;;;5067767;28;20085;-75
2022/08/14 00:15:09;;;;;;;9.65;4.47;;;22.50;99.20;;;;;;5082217;28;20486;-76
2022/08/14 00:17:34;;;;;;;11.85;5.25;;;22.50;99.30;;;;;;5080392;28;20072;-75
2022/08/14 00:20:00;;;;;;;8.43;5.25;;;22.50;99.40;;;;;;5083084;28;20483;-74
2022/08/14 00:22:26;;;;;;;6.50;4.68;;;22.50;99.50;;;;;;5080090;28;20036;-75
2022/08/14 00:24:51;;;;;;;11.23;4.93;;;22.50;99.60;;;;;;5065136;28;20039;-74
2022/08/14 00:27:17;;;;;;;8.77;4.75;;;22.40;99.60;;;;;;5072687;28;20415;-74
2022/08/14 00:29:42;;;;;;;7.25;4.82;;;22.30;99.80;;;;;;5076697;28;20569;-73
2022/08/14 00:32:08;;;;;;;6.68;4.75;;;22.30;99.90;;;;;;5079725;27;20036;-75
2022/08/14 00:34:34;;;;;;;5.50;4.50;;;22.20;99.90;;;;;;5065154;28;20420;-74
2022/08/14 00:37:00;;;;;;;9.63;5.00;;;22.10;99.90;;;;;;5068287;27;20044;-75
2022/08/14 00:39:26;;;;;;;7.22;5.28;;;22.00;99.90;;;;;;5090142;28;20114;-73
2022/08/14 00:41:51;;;;;;;10.73;5.03;;;21.90;99.90;;;;;;5066426;28;20122;-74
2022/08/14 00:44:17;;;;;;;9.20;5.22;;;21.80;99.90;;;;;;5077356;28;20067;-74
2022/08/14 00:46:44;;;;;;;11.52;5.03;;;21.70;99.90;;;;;;5085707;28;20035;-74
2022/08/14 00:49:11;;;;;;;11.13;5.50;;;21.70;99.90;;;;;;5080485;28;20048;-74
2022/08/14 00:51:37;;;;;;;5.72;5.20;;;21.60;99.90;;;;;;5083935;28;20482;-75
2022/08/14 00:54:04;;;;;;;8.20;5.38;;;21.60;99.90;;;;;;5081023;28;20040;-75
2022/08/14 00:56:30;;;;;;;6.88;5.43;;;21.50;99.90;;;;;;5078747;28;21475;-74
2022/08/14 00:58:58;;;;;;;7.30;5.13;;;21.40;99.90;;;;;;5078941;28;20042;-75
2022/08/14 01:01:24;;;;;;;8.68;5.35;;;21.30;99.90;;;;;;5066083;28;20434;-75
2022/08/14 01:03:52;;;;;;;6.05;4.93;;;21.30;99.90;;;;;;5063606;28;20162;-75
2022/08/14 01:06:22;;;;;;;6.65;5.47;;;21.30;99.90;;;;;;5062950;28;20051;-75
2022/08/14 01:08:49;;;;;;;13.77;5.72;;;21.20;99.90;;;;;;5077381;28;20063;-75
2022/08/14 01:11:14;;;;;;;6.70;5.75;;;21.20;99.90;;;;;;5061356;28;20088;-76
2022/08/14 01:13:42;;;;;;;10.38;5.50;;;21.20;99.90;;;;;;5083632;28;21588;-74
2022/08/14 01:16:13;;;;;;;9.05;5.65;;;21.20;99.90;;;;;;5068923;28;20031;-74
2022/08/14 01:21:38;;;;;;;9.57;5.90;;;21.20;99.90;;;;;;5081701;28;20043;-74
2022/08/14 01:24:09;;;;;;;8.98;6.38;;;21.10;99.90;;;;;;5075767;28;20050;-75
2022/08/14 01:26:35;;;;;;;10.32;5.55;;;21.10;99.90;;;;;;5061982;28;22115;-75
2022/08/14 01:29:05;;;;;;;12.90;6.25;;;21.20;99.90;;;;;;5059023;28;20125;-75
2022/08/14 01:31:33;;;;;;;8.45;6.53;;;21.10;99.90;;;;;;5079962;28;20066;-74
2022/08/14 01:34:06;;;;;;;9.45;5.80;;;21.10;99.90;;;;;;5079142;28;20355;-73
2022/08/14 01:36:36;;;;;;;10.90;6.13;;;21.10;99.90;;;;;;5065892;28;20074;-76
2022/08/14 01:39:06;;;;;;;8.27;6.50;;;21.00;99.90;;;;;;5081680;28;20136;-77
2022/08/14 01:41:33;;;;;;;11.68;6.97;;;21.00;99.90;;;;;;5064852;28;20039;-74
2022/08/14 01:44:04;;;;;;;7.18;5.88;;;21.00;99.90;;;;;;5078079;28;20591;-75
2022/08/14 01:46:39;;;;;;;10.98;6.18;;;21.00;99.90;;;;;;5077326;28;20075;-75
2022/08/14 01:49:07;;;;;;;12.75;6.40;;;20.90;99.90;;;;;;5078426;28;20044;-75
2022/08/14 01:51:33;;;;;;;13.35;6.97;;;20.80;99.90;;;;;;5081873;28;20119;-75
2022/08/14 01:54:04;;;;;;;9.35;6.03;;;20.90;99.90;;;;;;5082780;28;20058;-74
2022/08/14 01:56:41;;;;;;;10.70;6.60;;;20.90;99.90;;;;;;5082716;28;20731;-74
2022/08/14 01:59:19;;;;;;;10.60;6.68;;;20.80;99.90;;;;;;5085426;28;20100;-74
2022/08/14 02:01:48;;;;;;;7.65;6.22;;;20.80;99.90;;;;;;5070153;28;20039;-74
2022/08/14 02:04:14;;;;;;;11.05;6.60;;;20.80;99.90;;;;;;5081798;28;20043;-73
2022/08/14 02:06:40;;;;;;;10.55;6.43;;;20.80;99.90;;;;;;5078949;28;20097;-74
2022/08/14 02:09:07;;;;;;;10.38;6.75;;;20.80;99.90;;;;;;5063026;28;20051;-74
2022/08/14 02:11:34;;;;;;;7.95;6.75;;;20.80;99.90;;;;;;5077995;28;20140;-75
2022/08/14 02:14:09;;;;;;;7.63;6.82;;;20.70;99.90;;;;;;5076738;28;20695;-75
2022/08/14 02:16:44;;;;;;;9.63;6.97;;;20.70;99.90;;;;;;5085876;28;20040;-75
2022/08/14 02:19:14;;;;;;;10.30;6.57;;;20.60;99.90;;;;;;5080543;28;20122;-75
2022/08/14 02:21:41;;;;;;;12.95;7.32;;;20.60;99.90;;;;;;5085090;28;20055;-75
2022/08/14 02:24:07;;;;;;;12.90;7.15;;;20.60;99.90;;;;;;5084253;28;20868;-75
2022/08/14 02:26:36;;;;;;;8.30;7.03;;;20.60;99.90;;;;;;5070549;28;20048;-74
2022/08/14 02:29:09;;;;;;;8.25;6.82;;;20.50;99.90;;;;;;5087552;28;20032;-75
2022/08/14 02:31:42;;;;;;;15.82;6.85;;;20.50;99.90;;;;;;5070791;28;20052;-76
2022/08/14 02:34:13;;;;;;;11.15;7.25;;;20.50;99.90;;;;;;5080419;28;20047;-74
2022/08/14 02:36:40;;;;;;;12.57;7.50;;;20.40;99.90;;;;;;5066934;28;20036;-75
2022/08/14 02:39:07;;;;;;;12.52;8.15;;;20.40;99.90;;;;;;5061891;28;20048;-75
2022/08/14 02:41:34;;;;;;;11.55;7.30;;;20.40;99.90;;;;;;5085215;28;20044;-75
2022/08/14 02:44:03;;;;;;;10.07;7.72;;;20.40;99.90;;;;;;5083258;28;20365;-75
2022/08/14 02:46:32;;;;;;;8.98;7.47;;;20.40;99.90;;;;;;5064010;28;20064;-75
2022/08/14 02:48:59;;;;;;;11.57;8.00;;;20.40;99.90;;;;;;5075436;28;20850;-74
2022/08/14 02:51:25;;;;;;;9.43;7.57;;;20.40;99.90;;;;;;5084919;27;20028;-76
2022/08/14 02:53:53;;;;;;;11.05;7.60;;;20.40;99.90;;;;;;5067271;28;20035;-75
2022/08/14 02:56:19;;;;;;;10.65;7.43;;;20.30;99.90;;;;;;5102891;27;20074;-75
2022/08/14 02:58:50;;;;;;;9.18;7.57;;;20.30;99.90;;;;;;5080545;28;20075;-74
2022/08/14 03:01:18;;;;;;;10.80;7.65;;;20.30;99.90;;;;;;5083510;28;20116;-75
2022/08/14 03:03:47;;;;;;;14.38;7.72;;;20.30;99.90;;;;;;5081739;28;20307;-74
2022/08/14 03:06:13;;;;;;;10.15;6.95;;;20.30;99.90;;;;;;5060925;28;20043;-75
2022/08/14 03:08:40;;;;;;;12.77;7.65;;;20.40;99.90;;;;;;5082330;28;21802;-76
2022/08/14 03:11:10;;;;;;;9.65;7.47;;;20.50;99.90;;;;;;5079946;28;20039;-74
2022/08/14 03:13:42;;;;;;;12.30;7.47;;;20.50;99.90;;;;;;5087690;28;20229;-75
2022/08/14 03:16:13;;;;;;;9.32;7.20;;;20.50;99.90;;;;;;5083757;28;20056;-75
2022/08/14 03:18:43;;;;;;;7.50;6.80;;;20.60;99.90;;;;;;5084116;28;20039;-74
2022/08/14 03:21:15;;;;;;;11.27;7.20;;;20.60;99.90;;;;;;5070773;28;20070;-73
2022/08/14 03:23:42;;;;;;;11.38;7.10;;;20.60;99.90;;;;;;5085272;28;20059;-74
2022/08/14 03:26:13;;;;;;;9.48;6.45;;;20.60;99.90;;;;;;5084073;28;20070;-75
2022/08/14 03:28:41;;;;;;;8.20;6.60;;;20.60;99.90;;;;;;5064970;28;20056;-75
2022/08/14 03:31:08;;;;;;;7.82;6.25;;;20.70;99.90;;;;;;5064517;28;20044;-75
2022/08/14 03:33:39;;;;;;;9.15;6.22;;;20.80;99.90;;;;;;5080449;28;20038;-75
2022/08/14 03:36:11;;;;;;;9.98;7.05;;;20.70;99.90;;;;;;5080184;28;20050;-76
2022/08/14 03:38:45;;;;;;;9.82;6.93;;;20.70;99.90;;;;;;5078441;28;20044;-74
2022/08/14 03:41:17;;;;;;;15.98;7.00;;;20.60;99.90;;;;;;5064272;28;20582;-76
2022/08/14 03:43:45;;;;;;;7.93;6.60;;;20.70;99.90;;;;;;5066355;28;20032;-75
2022/08/14 03:46:12;;;;;;;10.88;6.70;;;20.70;99.90;;;;;;5078536;28;20043;-75
2022/08/14 03:48:42;;;;;;;12.48;6.72;;;20.70;99.90;;;;;;5079435;28;20067;-74
2022/08/14 03:51:09;;;;;;;7.60;6.70;;;20.70;99.90;;;;;;5082213;28;20035;-75
2022/08/14 03:53:40;;;;;;;13.32;7.32;;;20.60;99.90;;;;;;5062665;28;20038;-74
2022/08/14 03:56:13;;;;;;;12.85;7.03;;;20.60;99.90;;;;;;5078041;28;20043;-75
2022/08/14 03:58:50;;;;;;;12.30;7.57;;;20.60;99.90;;;;;;5080957;28;20115;-75
2022/08/14 04:01:21;;;;;;;9.75;7.32;;;20.50;99.90;;;;;;5065850;28;20157;-74
2022/08/14 04:03:48;;;;;;;8.48;7.60;;;20.50;99.90;;;;;;5076419;28;20492;-74
2022/08/14 04:06:15;;;;;;;9.32;7.55;;;20.50;99.90;;;;;;5077007;28;20047;-74
2022/08/14 04:08:42;;;;;;;8.18;7.13;;;20.50;99.90;;;;;;5063142;28;20063;-75
2022/08/14 04:11:09;;;;;;;8.00;7.20;;;20.50;99.90;;;;;;5064391;28;20063;-75
2022/08/14 04:13:37;;;;;;;9.32;6.95;;;20.60;99.90;;;;;;5042624;28;1104933;-74
2022/08/14 04:16:14;;;;;;;11.13;7.30;;;20.70;99.90;;;;;;5085663;28;20039;-74
2022/08/14 04:18:42;;;;;;;15.98;7.25;;;20.70;99.90;;;;;;5079386;28;20095;-74
2022/08/14 04:21:09;;;;;;;8.95;7.35;;;20.60;99.90;;;;;;5068533;28;20655;-74
2022/08/14 04:23:35;;;;;;;10.43;7.38;;;20.60;99.90;;;;;;5086339;28;20040;-76
2022/08/14 04:26:04;;;;;;;8.68;7.05;;;20.60;99.90;;;;;;5089425;28;20095;-75
2022/08/14 04:28:31;;;;;;;10.05;7.50;;;20.60;99.90;;;;;;5082878;28;20049;-76
2022/08/14 04:30:59;;;;;;;10.23;7.93;;;20.60;99.90;;;;;;5066680;27;20040;-74
2022/08/14 04:33:25;;;;;;;8.95;7.60;;;20.60;99.90;;;;;;5067835;27;20046;-74
2022/08/14 04:35:51;;;;;;;9.85;7.65;;;20.60;99.90;;;;;;5067265;28;20387;-74
2022/08/14 04:43:48;;;;;;;9.82;8.35;;;20.70;99.90;;;;;;5079035;28;20390;-75
2022/08/14 04:46:16;;;;;;;13.32;7.57;;;20.70;99.90;;;;;;5077045;28;20181;-75
2022/08/14 04:48:42;;;;;;;10.40;8.13;;;20.70;99.90;;;;;;5065142;27;20469;-76
2022/08/14 04:51:14;;;;;;;13.05;8.18;;;20.70;99.90;;;;;;5066063;27;20035;-75
2022/08/14 04:53:42;;;;;;;10.13;8.25;;;20.70;99.90;;;;;;5063360;28;20040;-75
2022/08/14 04:56:11;;;;;;;10.20;8.50;;;20.70;99.90;;;;;;5059597;28;20926;-76
2022/08/14 04:58:37;;;;;;;9.55;8.35;;;20.60;99.90;;;;;;5070505;28;20028;-77
2022/08/14 05:01:05;;;;;;;15.57;8.68;;;20.60;99.90;;;;;;5079373;28;20061;-76
2022/08/14 05:03:34;;;;;;;9.98;8.60;;;20.60;99.90;;;;;;5079078;28;20039;-77
2022/08/14 05:06:02;;;;;;;12.40;9.05;;;20.60;99.90;;;;;;5059602;28;20047;-74
2022/08/14 05:08:29;;;;;;;11.23;8.48;;;20.60;99.90;;;;;;5079003;28;20103;-75
2022/08/14 05:10:57;;;;;;;10.35;8.75;;;20.60;99.90;;;;;;5079674;28;20039;-75
2022/08/14 05:13:25;;;;;;;10.40;8.27;;;20.60;99.90;;;;;;5061623;28;20075;-76
2022/08/14 05:15:52;;;;;;;11.95;8.27;;;20.60;99.90;;;;;;5080494;28;20135;-77
2022/08/14 05:18:22;;;;;;;10.13;8.48;;;20.60;99.90;;;;;;5063675;27;20035;-75
2022/08/14 05:20:50;;;;;;;13.80;8.88;;;20.70;99.90;;;;;;5076965;28;20068;-76
2022/08/14 05:23:22;;;;;;;9.90;7.82;;;20.80;99.90;;;;;;5062706;27;20836;-75
2022/08/14 05:25:50;;;;;;;11.73;8.90;;;20.80;99.90;;;;;;5077452;28;20081;-75
2022/08/14 05:28:20;;;;;;;11.07;8.35;;;20.80;99.90;;;;;;5075758;28;20043;-75
2022/08/14 05:30:48;;;;;;;12.27;8.95;;;20.90;99.90;;;;;;5059354;27;20096;-75
2022/08/14 05:33:17;;;;;;;11.77;8.45;;;21.00;99.90;;;;;;5073083;28;20075;-75
2022/08/14 05:35:44;;;;;;;12.88;8.30;;;21.00;99.90;;;;;;5060103;28;20035;-76
2022/08/14 05:38:14;;;;;;;12.38;8.40;;;21.10;99.90;;;;;;5075477;28;20089;-75
2022/08/14 05:40:40;;;;;;;15.57;8.68;;;21.20;99.90;;;;;;5092400;27;20071;-76
2022/08/14 05:43:06;;;;;;;12.52;8.50;;;21.30;99.90;;;;;;5080100;28;20164;-75
2022/08/14 05:45:34;;;;;;;10.60;8.00;;;21.30;99.90;;;;;;5062638;28;20051;-76
2022/08/14 05:48:04;;;;;;;10.32;7.88;;;21.40;99.90;;;;;;5095451;28;20044;-75
2022/08/14 05:50:32;;;;;;;15.40;7.75;;;21.50;99.90;;;;;;5077828;28;20044;-74
2022/08/14 05:52:57;;;;;;;10.55;7.63;;;21.60;99.90;;;;;;5067492;28;20432;-76
2022/08/14 05:55:23;;;;;;;8.50;7.60;;;21.60;99.90;;;;;;5077361;28;20059;-75
2022/08/14 05:57:56;;;;;;;10.07;7.13;;;21.80;99.90;;;;;;5083109;28;20036;-72
2022/08/14 06:00:27;;;;;;;10.02;7.38;;;21.80;99.90;;;;;;5079361;28;20161;-73
2022/08/14 06:02:55;;;;;;;10.60;7.32;;;22.00;99.90;;;;;;5084136;28;20058;-73
2022/08/14 06:05:21;;;;;;;15.80;7.50;;;22.00;99.90;;;;;;5082928;28;20051;-74
2022/08/14 06:07:47;;;;;;;12.63;7.50;;;22.10;99.90;;;;;;5069309;28;20040;-73
2022/08/14 06:10:13;;;;;;;8.45;7.55;;;22.20;99.90;;;;;;5088705;28;20062;-74
2022/08/14 06:12:39;;;;;;;11.07;6.68;;;22.20;99.90;;;;;;5076539;28;20773;-74
2022/08/14 06:15:06;;;;;;;12.32;7.13;;;22.10;99.90;;;;;;5087412;28;20081;-75
2022/08/14 06:17:42;;;;;;;8.93;7.00;;;22.20;99.90;;;;;;5069822;28;20047;-73
2022/08/14 06:20:08;;;;;;;12.27;6.38;;;22.30;99.90;;;;;;5082707;28;20039;-73
2022/08/14 06:22:34;;;;;;;8.23;7.40;;;22.20;99.90;;;;;;5085126;28;20061;-74
2022/08/14 06:25:00;;;;;;;13.90;7.53;;;22.30;99.90;;;;;;5083824;28;20479;-73
2022/08/14 06:27:25;;;;;;;7.80;6.57;;;22.30;99.90;;;;;;5088109;28;20035;-73
2022/08/14 06:29:51;;;;;;;11.00;6.95;;;22.40;99.90;;;;;;5091235;28;20078;-73
2022/08/14 06:32:17;;;;;;;9.95;6.85;;;22.50;99.90;;;;;;5092876;28;20364;-74
2022/08/14 06:34:42;;;;;;;10.00;6.25;;;22.60;99.90;;;;;;5093083;28;20039;-73
2022/08/14 06:37:08;;;;;;;7.65;6.43;;;22.60;99.90;;;;;;5090599;28;20118;-74
2022/08/14 06:39:34;;;;;;;12.63;6.78;;;22.70;99.90;;;;;;5074565;28;20119;-74
2022/08/14 06:41:59;;;;;;;14.73;6.50;;;22.80;99.90;;;;;;5074142;28;20134;-73
2022/08/14 06:44:26;;;;;;;12.55;6.75;;;22.90;99.90;;;;;;5088808;28;20078;-73
2022/08/14 06:46:52;;;;;;;7.82;6.53;;;22.90;99.90;;;;;;5092455;28;20353;-73
2022/08/14 06:49:18;;;;;;;8.98;6.55;;;22.90;99.90;;;;;;5061965;28;20440;-74
2022/08/14 06:51:45;;;;;;;8.20;6.70;;;23.00;99.90;;;;;;5072462;28;20036;-74
2022/08/14 06:54:12;;;;;;;10.73;6.68;;;23.10;99.90;;;;;;5072181;28;20162;-74
2022/08/14 06:56:38;;;;;;;10.65;7.38;;;23.10;99.90;;;;;;5086906;28;20473;-74
2022/08/14 06:59:04;;;;;;;10.48;7.40;;;23.20;99.90;;;;;;5068885;28;20048;-74
2022/08/14 07:07:01;;;;;;;9.63;7.57;;;23.30;99.90;;;;;;5092879;28;20150;-74
2022/08/14 07:09:27;;;;;;;11.52;7.88;;;23.40;99.90;;;;;;5084549;28;20096;-74
2022/08/14 07:11:52;;;;;;;11.60;6.78;;;23.40;99.90;;;;;;5092126;28;20036;-74
2022/08/14 07:14:18;;;;;;;16.65;7.53;;;23.40;99.90;;;;;;5081013;28;20044;-74
2022/08/14 07:16:44;;;;;;;10.32;7.80;;;23.50;99.90;;;;;;5101882;28;20044;-73
2022/08/14 07:19:09;;;;;;;9.65;7.03;;;23.60;99.90;;;;;;5097277;28;20043;-72
2022/08/14 07:21:36;;;;;;;9.73;7.10;;;23.60;99.90;;;;;;5092764;28;20066;-74
2022/08/14 07:24:03;;;;;;;14.48;7.05;;;23.70;99.90;;;;;;5074034;28;20112;-74
2022/08/14 07:26:29;;;;;;;11.40;6.95;;;23.80;99.90;;;;;;5070090;28;20332;-74
2022/08/14 07:28:54;;;;;;;10.73;6.70;;;23.80;99.90;;;;;;5064755;27;20066;-73
2022/08/14 07:31:20;;;;;;;12.40;7.05;;;23.80;99.90;;;;;;5092888;28;20044;-74
2022/08/14 07:33:50;;;;;;;10.30;6.70;;;23.90;99.90;;;;;;5092186;28;20047;-74
2022/08/14 07:36:17;;;;;;;13.10;6.38;;;24.00;99.90;;;;;;5086623;28;20123;-74
2022/08/14 07:38:43;;;;;;;8.55;6.53;;;24.10;99.90;;;;;;5087930;27;20082;-74
2022/08/14 07:41:11;;;;;;;9.30;6.38;;;24.20;99.90;;;;;;5089974;28;20490;-74
2022/08/14 07:43:38;;;;;;;9.32;6.57;;;24.20;99.90;;;;;;5065963;28;20059;-73
2022/08/14 07:46:04;;;;;;;10.57;6.45;;;24.30;99.90;;;;;;5093018;28;20082;-73
2022/08/14 07:48:30;;;;;;;10.55;5.80;;;24.30;99.90;;;;;;5085859;27;20449;-74
2022/08/14 07:50:55;;;;;;;9.57;6.03;;;24.40;99.90;;;;;;5090813;27;20040;-74
2022/08/14 07:53:21;;;;;;;7.22;5.82;;;24.50;99.90;;;;;;5071555;28;20059;-73
2022/08/14 07:55:48;;;;;;;12.32;6.38;;;24.50;99.90;;;;;;5073233;28;20032;-74
2022/08/14 07:58:16;;;;;;;13.73;6.30;;;24.60;99.90;;;;;;5083948;28;20042;-73
2022/08/14 08:00:43;;;;;;;6.55;5.93;;;24.70;99.90;;;;;;5085066;27;20478;-73
2022/08/14 08:03:09;;;;;;;15.88;5.88;;;24.70;99.90;;;;;;5089131;27;20126;-73
2022/08/14 08:05:36;;;;;;;9.07;5.85;;;24.80;99.90;;;;;;5093392;28;20074;-74
2022/08/14 08:08:03;;;;;;;6.97;5.65;;;24.90;99.90;;;;;;5089960;28;20401;-73
2022/08/14 08:10:31;;;;;;;7.18;5.55;;;24.90;99.90;;;;;;5079760;27;20078;-73
2022/08/14 08:13:11;;;;;;;10.48;5.57;;;25.00;99.90;;;;;;5094390;28;20090;-73
2022/08/14 08:15:42;;;;;;;7.47;5.45;;;25.00;99.90;;;;;;5090829;28;20039;-73
2022/08/14 08:18:10;;;;;;;8.40;5.70;;;25.10;99.90;;;;;;5093190;28;20037;-73
2022/08/14 08:20:39;;;;;;;8.68;5.75;;;25.20;99.90;;;;;;5093762;28;20043;-74
2022/08/14 08:23:06;;;;;;;8.32;5.60;;;25.30;99.90;;;;;;5091864;28;20043;-73
2022/08/14 08:25:35;;;;;;;7.50;5.35;;;25.40;99.90;;;;;;5089981;28;20052;-73
2022/08/14 08:28:05;;;;;;;5.63;5.13;;;25.50;99.90;;;;;;5088562;28;20429;-73
2022/08/14 08:30:32;;;;;;;5.35;4.82;;;25.60;99.90;;;;;;5091766;28;20051;-75
2022/08/14 08:33:03;;;;;;;9.70;5.43;;;25.60;99.90;;;;;;5075566;28;20046;-74
2022/08/14 08:35:33;;;;;;;8.27;5.00;;;25.60;99.90;;;;;;5110576;27;20048;-75
2022/08/14 08:38:04;;;;;;;7.53;5.15;;;25.80;99.90;;;;;;5095239;28;20105;-73
2022/08/14 08:40:35;;;;;;;8.57;5.32;;;25.80;99.90;;;;;;5088203;28;20367;-74
2022/08/14 08:43:06;;;;;;;8.77;5.60;;;25.80;99.90;;;;;;5089128;28;20393;-75
2022/08/14 08:45:34;;;;;;;7.60;5.05;;;25.90;99.90;;;;;;5081980;28;20050;-76
2022/08/14 08:48:03;;;;;;;10.57;5.40;;;26.00;99.90;;;;;;5084493;28;20143;-74
2022/08/14 08:50:35;;;;;;;11.27;5.10;;;26.10;99.90;;;;;;5087962;28;20475;-74
2022/08/14 08:53:03;;;;;;;9.50;4.88;;;26.20;99.90;;;;;;5073443;28;20044;-74
2022/08/14 08:55:38;;;;;;;5.63;5.00;;;26.30;99.90;;;;;;5079679;28;20032;-74
2022/08/14 08:58:05;;;;;;;;;;;26.40;99.90;;;;;;5086244;28;20046;-75
2022/08/14 09:00:33;;;;;;;7.93;4.65;;;26.40;99.90;;;;;;5082489;28;19919;-74
2022/08/14 09:03:09;;;;;;;6.55;4.72;;;26.50;99.90;;;;;;5092460;28;20113;-74
2022/08/14 09:05:37;;;;;;;7.50;4.60;;;26.50;99.90;;;;;;5090547;28;20360;-74
2022/08/14 09:08:17;;;;;;;7.18;4.75;;;26.50;99.90;;;;;;5093428;28;20056;-74
2022/08/14 09:10:44;;;;;;;5.32;3.90;;;26.70;99.90;;;;;;5081849;28;20051;-74
2022/08/14 09:13:11;;;;;;;7.60;4.55;;;26.90;99.90;;;;;;5072317;27;20046;-74
2022/08/14 09:15:39;;;;;;;8.70;4.93;;;26.90;99.90;;;;;;5071193;28;20423;-73
2022/08/14 09:18:06;;;;;;;7.22;4.70;;;27.00;99.90;;;;;;5085291;28;20040;-74
2022/08/14 09:20:32;;;;;;;6.00;4.70;;;27.00;99.90;;;;;;5070398;28;20415;-73
2022/08/14 09:23:04;;;;;;;11.15;6.13;;;27.10;99.90;;;;;;5093667;28;20043;-73
2022/08/14 09:25:30;;;;;;;4.82;4.38;;;27.20;99.90;;;;;;5084247;28;20394;-73
2022/08/14 09:27:56;;;;;;;7.93;4.63;;;27.30;99.90;;;;;;5085222;28;20046;-73
2022/08/14 09:30:22;;;;;;;9.07;4.50;;;27.30;99.90;;;;;;5084761;28;20039;-74
2022/08/14 09:33:02;;;;;;;6.00;4.15;;;27.40;99.90;;;;;;5083228;28;20089;-74
2022/08/14 09:36:21;;;;;;;4.55;4.15;;;27.50;99.80;;;;;;5086142;28;20126;-74
2022/08/14 09:38:52;;;;;;;5.35;4.28;;;27.60;99.50;;;;;;4979590;28;20064;-74
2022/08/14 09:41:44;;;;;;;5.13;4.22;;;27.60;99.50;;;;;;4985101;28;20049;-74
2022/08/14 09:44:39;;;;;;;5.00;4.30;;;27.70;99.30;;;;;;4991366;28;20049;-74
2022/08/14 09:47:04;;;;;;;5.30;4.50;;;27.80;99.60;;;;;;4979890;28;20158;-73
2022/08/14 09:49:35;;;;;;;6.10;4.13;;;27.90;99.30;;;;;;4990362;28;20053;-75
2022/08/14 09:52:12;;;;;;;10.98;4.32;;;27.90;99.40;;;;;;4976958;28;20393;-74
2022/08/14 09:54:50;;;;;;;9.20;4.65;;;27.90;99.20;;;;;;5009921;28;20142;-72
2022/08/14 09:57:29;;;;;;;6.78;4.70;;;28.00;99.30;;;;;;4976525;28;20421;-73
2022/08/14 09:59:55;;;;;;;5.47;4.10;;;28.20;99.50;;;;;;4991671;28;20037;-74
2022/08/14 10:02:24;;;;;;;7.47;4.30;;;28.20;99.10;;;;;;5007124;28;20060;-74
2022/08/14 10:05:08;;;;;;;5.30;4.22;;;28.40;99.10;;;;;;4974621;28;20064;-74
2022/08/14 10:07:49;;;;;;;4.60;4.18;;;28.30;98.70;;;;;;4974134;28;20488;-73
2022/08/14 10:10:44;;;;;;;9.88;4.10;;;28.40;98.50;;;;;;5052290;28;20105;-74
2022/08/14 10:13:24;;;;;;;5.88;4.25;;;28.60;98.30;;;;;;5087705;28;20055;-75
2022/08/14 10:15:50;;;;;;;6.57;4.30;;;28.80;98.60;;;;;;5089187;28;20043;-74
2022/08/14 10:18:18;;;;;;;5.05;4.10;;;28.90;98.20;;;;;;5083729;28;20069;-75
2022/08/14 10:21:15;;;;;;;6.40;4.47;;;28.90;98.20;;;;;;5083160;28;20070;-75
2022/08/14 10:23:51;;;;;;;6.72;4.35;;;29.30;98.60;;;;;;4995791;28;20544;-74
2022/08/14 10:26:20;;;;;;;5.38;4.13;;;29.40;98.20;;;;;;4972697;28;20046;-75
2022/08/14 10:28:49;;;;;;;5.82;4.15;;;29.50;97.80;;;;;;4986398;28;20045;-74
2022/08/14 10:31:36;;;;;;;4.82;3.70;;;29.60;97.10;;;;;;5002319;28;20128;-74
2022/08/14 10:34:12;;;;;;;4.88;4.00;;;29.60;96.60;;;;;;4972244;28;20041;-73
2022/08/14 10:36:40;;;;;;;7.50;3.90;;;29.70;96.40;;;;;;4972684;28;20043;-75
2022/08/14 10:39:19;;;;;;;5.15;3.58;;;29.50;96.30;;;;;;4970867;28;20065;-74
2022/08/14 10:41:46;;;;;;;4.35;3.35;;;29.90;96.80;;;;;;4994109;28;20050;-74
2022/08/14 10:44:15;;;;;;;4.10;3.65;;;30.00;96.70;;;;;;4976690;28;20469;-74
2022/08/14 10:46:46;;;;;;;5.20;3.80;;;30.30;96.60;;;;;;4992657;28;20124;-74
2022/08/14 10:49:25;;;;;;;4.78;3.83;;;30.40;96.40;;;;;;4995738;28;20084;-74
2022/08/14 10:52:07;;;;;;;4.07;3.40;;;30.30;95.80;;;;;;4996302;28;20516;-74
2022/08/14 10:54:40;;;;;;;3.75;3.40;;;30.70;96.20;;;;;;4988466;28;20048;-75
2022/08/14 10:57:24;;;;;;;5.43;3.20;;;30.80;96.10;;;;;;4975228;28;20862;-75
2022/08/14 10:59:58;;;;;;;6.30;3.80;;;30.80;95.80;;;;;;5032575;28;20043;-74
2022/08/14 11:02:36;;;;;;;10.00;3.72;;;31.10;96.00;;;;;;5075884;28;20063;-73
2022/08/14 11:05:12;;;;;;;4.18;3.45;;;31.30;95.30;;;;;;5090046;27;20125;-74
2022/08/14 11:07:54;;;;;;;4.40;3.70;;;31.40;95.00;;;;;;5080008;28;20522;-74
2022/08/14 11:10:25;;;;;;;4.45;3.38;;;31.40;94.30;;;;;;5094618;28;20447;-74
2022/08/14 11:12:54;;;;;;;4.55;3.55;;;31.50;94.40;;;;;;5086472;28;20044;-73
2022/08/14 11:15:26;;;;;;;7.72;3.88;;;31.60;94.80;;;;;;5062474;27;20048;-74
2022/08/14 11:17:53;;;;;;;3.90;3.10;;;31.70;94.50;;;;;;5075589;27;20063;-74
2022/08/14 11:20:21;;;;;;;5.72;3.50;;;31.90;94.10;;;;;;5083033;27;20096;-75
2022/08/14 11:22:53;;;;;;;3.90;3.28;;;32.10;93.40;;;;;;5098104;27;20167;-75
2022/08/14 11:25:22;;;;;;;5.47;3.30;;;32.00;93.50;;;;;;5083517;28;20040;-75
2022/08/14 11:27:50;;;;;;;6.28;3.47;;;32.00;93.20;;;;;;5078923;28;20395;-75
2022/08/14 11:30:21;;;;;;;6.13;3.88;;;32.30;93.80;;;;;;5079424;28;20051;-76
2022/08/14 11:32:48;;;;;;;4.80;3.08;;;32.20;93.70;;;;;;5071374;27;20178;-76
2022/08/14 11:35:16;;;;;;;4.45;3.28;;;32.60;93.80;;;;;;5079771;28;20064;-75
2022/08/14 11:38:03;;;;;;;5.22;3.35;;;32.80;93.30;;;;;;5065154;27;20122;-74
2022/08/14 11:40:33;;;;;;;6.68;3.40;;;32.80;93.20;;;;;;5061559;28;20070;-76
2022/08/14 11:43:04;;;;;;;4.38;3.30;;;33.00;93.00;;;;;;5089631;27;20138;-76
2022/08/14 11:45:33;;;;;;;3.90;3.40;;;33.50;93.20;;;;;;5077625;27;20047;-77
2022/08/14 11:48:22;;;;;;;5.05;3.20;;;33.60;92.60;;;;;;5077196;28;21600;-76
2022/08/14 11:50:53;;;;;;;7.07;3.30;;;33.70;92.60;;;;;;5081745;28;20847;-76
2022/08/14 11:53:29;;;;;;;4.82;3.13;;;33.90;92.20;;;;;;5059446;28;20035;-76
2022/08/14 11:56:05;;;;;;;4.40;3.33;;;33.70;91.70;;;;;;5084880;28;20118;-71
2022/08/14 11:58:38;;;;;;;3.70;3.22;;;33.90;91.60;;;;;;5081236;28;20028;-75
2022/08/14 12:01:07;;;;;;;5.93;3.38;;;33.80;91.10;;;;;;5069598;28;20509;-76
2022/08/14 12:03:41;;;;;;;3.45;3.15;;;33.70;91.10;;;;;;5075310;28;20105;-75
2022/08/14 12:06:12;;;;;;;4.93;3.50;;;34.00;91.10;;;;;;5085690;28;20112;-75
2022/08/14 12:08:41;;;;;;;3.97;3.50;;;33.80;90.60;;;;;;5083160;28;20108;-75
2022/08/14 12:11:12;;;;;;;3.67;3.15;;;34.10;91.10;;;;;;5066734;28;20391;-75
2022/08/14 12:13:39;;;;;;;4.88;3.30;;;34.10;90.80;;;;;;5097303;27;20060;-75
2022/08/14 12:16:11;;;;;;;6.97;3.50;;;34.30;91.10;;;;;;5077298;27;20035;-74
2022/08/14 12:18:40;;;;;;;5.55;3.40;;;34.50;90.60;;;;;;5080520;28;20040;-76
2022/08/14 12:21:15;;;;;;;6.38;3.28;;;34.50;90.70;;;;;;5066043;27;20065;-75
2022/08/14 12:24:07;;;;;;;5.47;3.42;;;34.60;90.70;;;;;;5054725;28;20035;-75
2022/08/14 12:26:35;;;;;;;5.55;3.30;;;34.70;90.30;;;;;;5082931;28;20052;-75
2022/08/14 12:29:09;;;;;;;5.32;3.60;;;34.90;90.30;;;;;;5070981;27;20062;-75
2022/08/14 12:31:36;;;;;;;4.18;3.50;;;34.70;89.20;;;;;;5072571;28;20040;-76
2022/08/14 12:34:07;;;;;;;6.13;3.33;;;34.90;89.50;;;;;;5080796;28;20164;-73
2022/08/14 12:36:34;;;;;;;6.63;3.60;;;34.90;88.80;;;;;;5079591;28;20063;-75
2022/08/14 12:39:03;;;;;;;3.55;3.25;;;34.90;87.90;;;;;;5077426;28;20040;-76
2022/08/14 12:41:34;;;;;;;6.38;3.63;;;35.30;88.80;;;;;;5063467;28;20055;-77
2022/08/14 12:44:05;;;;;;;4.32;3.38;;;35.40;89.00;;;;;;5078891;28;20035;-77
2022/08/14 12:46:40;;;;;;;5.72;3.13;;;35.40;87.10;;;;;;5082095;28;20039;-76
2022/08/14 12:49:17;;;;;;;4.57;3.40;;;35.10;87.60;;;;;;5065106;27;20051;-77
2022/08/14 12:51:54;;;;;;;4.97;3.38;;;35.00;86.00;;;;;;5077543;27;20039;-76
2022/08/14 12:54:20;;;;;;;3.83;3.40;;;35.30;86.60;;;;;;5085345;28;20047;-77
2022/08/14 12:56:46;;;;;;;4.13;3.50;;;35.40;86.70;;;;;;5068607;27;20052;-76
2022/08/14 12:59:14;;;;;;;6.18;3.40;;;35.40;87.10;;;;;;5082575;28;20909;-76
2022/08/14 13:01:44;;;;;;;5.50;3.33;;;35.70;86.70;;;;;;5080672;27;20047;-76
2022/08/14 13:04:12;;;;;;;7.00;3.50;;;35.80;86.10;;;;;;5072497;28;20044;-76
2022/08/14 13:06:40;;;;;;;3.75;3.10;;;36.40;85.70;;;;;;5077759;27;20067;-77
2022/08/14 13:09:07;;;;;;;5.22;3.40;;;36.40;86.10;;;;;;5078215;28;20051;-78